createdAt,value
2018-03-16T00:01:16.109Z,25.20
2018-03-16T00:03:45.203Z,27.97
2018-03-16T00:06:13.540Z,26.10
2018-03-16T00:08:42.047Z,28.60
2018-03-16T00:11:10.427Z,27.10
2018-03-16T00:13:38.751Z,26.60
2018-03-16T00:16:07.123Z,28.80
2018-03-16T00:18:35.473Z,26.50
2018-03-16T00:21:03.969Z,30.20
2018-03-16T00:23:32.549Z,30.67
2018-03-16T00:26:00.849Z,29.00
2018-03-16T00:28:31.248Z,28.23
2018-03-16T00:31:01.307Z,28.43
2018-03-16T00:33:29.885Z,27.97
2018-03-16T00:36:00.930Z,33.10
2018-03-16T00:38:29.283Z,30.00
2018-03-16T00:40:57.585Z,27.87
2018-03-16T00:43:26.897Z,28.60
2018-03-16T00:45:55.281Z,29.40
2018-03-16T00:48:23.633Z,32.27
2018-03-16T00:50:51.965Z,28.10
2018-03-16T00:53:20.280Z,30.57
2018-03-16T00:55:48.579Z,29.40
2018-03-16T00:58:17.126Z,33.20
2018-03-16T01:00:45.419Z,37.53
2018-03-16T01:03:13.741Z,31.23
2018-03-16T01:05:42.075Z,30.43
2018-03-16T01:08:10.393Z,28.10
2018-03-16T01:10:40.744Z,30.13
2018-03-16T01:13:09.126Z,33.30
2018-03-16T01:15:39.199Z,28.93
2018-03-16T01:18:09.341Z,33.03
2018-03-16T01:20:43.136Z,34.03
2018-03-16T01:23:13.235Z,29.47
2018-03-16T01:25:42.489Z,37.50
2018-03-16T01:28:10.783Z,32.50
2018-03-16T01:30:40.273Z,32.33
2018-03-16T01:33:08.665Z,29.90
2018-03-16T01:35:36.931Z,30.30
2018-03-16T01:38:05.283Z,33.63
2018-03-16T01:40:33.557Z,31.87
2018-03-16T01:43:01.996Z,32.10
2018-03-16T01:45:30.359Z,35.10
2018-03-16T01:47:58.678Z,29.60
2018-03-16T01:50:26.937Z,27.40
2018-03-16T01:53:20.101Z,26.60
2018-03-16T01:55:48.412Z,27.73
2018-03-16T01:58:16.719Z,30.70
2018-03-16T02:00:46.802Z,32.73
2018-03-16T02:03:15.125Z,29.47
2018-03-16T02:05:44.233Z,31.00
2018-03-16T02:08:12.771Z,31.57
2018-03-16T02:10:41.285Z,36.70
2018-03-16T02:13:09.562Z,29.50
2018-03-16T02:15:39.640Z,29.57
2018-03-16T02:18:08.087Z,28.37
2018-03-16T02:20:36.528Z,29.83
2018-03-16T02:23:07.438Z,30.37
2018-03-16T02:25:35.795Z,31.87
2018-03-16T02:28:04.137Z,29.60
2018-03-16T02:30:32.600Z,35.70
2018-03-16T02:33:01.108Z,27.20
2018-03-16T02:35:29.389Z,31.23
2018-03-16T02:37:57.716Z,29.00
2018-03-16T02:40:26.271Z,29.03
2018-03-16T02:42:54.734Z,29.20
2018-03-16T02:45:23.156Z,30.83
2018-03-16T02:47:51.620Z,28.50
2018-03-16T02:50:20.731Z,27.30
2018-03-16T02:52:49.174Z,34.03
2018-03-16T02:55:20.371Z,33.67
2018-03-16T02:57:51.680Z,29.53
2018-03-16T03:00:20.026Z,29.30
2018-03-16T03:02:49.914Z,30.70
2018-03-16T03:05:18.219Z,27.27
2018-03-16T03:07:48.710Z,27.80
2018-03-16T03:10:17.102Z,26.53
2018-03-16T03:12:45.483Z,28.10
2018-03-16T03:15:13.942Z,31.17
2018-03-16T03:17:42.228Z,25.93
2018-03-16T03:20:10.544Z,29.93
2018-03-16T03:22:39.048Z,28.67
2018-03-16T03:25:07.561Z,27.83
2018-03-16T03:27:35.881Z,26.97
2018-03-16T03:30:04.313Z,26.10
2018-03-16T03:32:32.608Z,25.93
2018-03-16T03:35:00.948Z,27.10
2018-03-16T03:37:30.019Z,26.47
2018-03-16T03:39:58.405Z,32.37
2018-03-16T03:42:26.892Z,28.30
2018-03-16T03:44:55.171Z,27.00
2018-03-16T03:47:23.513Z,27.00
2018-03-16T03:49:51.894Z,27.30
2018-03-16T03:52:20.356Z,29.47
2018-03-16T03:54:49.048Z,25.63
2018-03-16T03:57:17.364Z,28.27
2018-03-16T03:59:45.709Z,24.93
2018-03-16T04:02:16.738Z,25.20
2018-03-16T04:04:45.190Z,24.07
2018-03-16T04:07:13.513Z,25.90
2018-03-16T04:09:41.874Z,25.77
2018-03-16T04:12:12.186Z,26.67
2018-03-16T04:14:42.310Z,23.53
2018-03-16T04:17:12.692Z,23.80
2018-03-16T04:19:45.139Z,24.83
2018-03-16T04:22:13.650Z,23.17
2018-03-16T04:24:42.062Z,25.87
2018-03-16T04:27:10.459Z,24.80
2018-03-16T04:29:39.656Z,24.27
2018-03-16T04:32:08.144Z,27.60
2018-03-16T04:34:37.228Z,25.47
2018-03-16T04:37:05.708Z,26.03
2018-03-16T04:39:34.172Z,23.33
2018-03-16T04:42:02.484Z,23.20
2018-03-16T04:44:30.803Z,24.47
2018-03-16T04:46:59.177Z,21.50
2018-03-16T04:49:27.788Z,23.33
2018-03-16T04:51:56.085Z,25.17
2018-03-16T04:54:24.906Z,27.53
2018-03-16T04:56:56.174Z,23.47
2018-03-16T04:59:24.624Z,24.20
2018-03-16T05:01:53.147Z,24.47
2018-03-16T05:04:21.475Z,22.30
2018-03-16T05:06:49.802Z,24.40
2018-03-16T05:09:18.076Z,20.77
2018-03-16T05:11:46.625Z,23.87
2018-03-16T05:14:15.243Z,23.60
2018-03-16T05:16:43.575Z,24.37
2018-03-16T05:19:11.853Z,22.83
2018-03-16T05:21:41.316Z,23.40
2018-03-16T05:24:09.755Z,20.40
2018-03-16T05:26:38.033Z,20.67
2018-03-16T05:29:07.265Z,25.50
2018-03-16T05:31:35.701Z,20.50
2018-03-16T05:34:04.259Z,23.23
2018-03-16T05:36:32.623Z,21.93
2018-03-16T05:39:01.346Z,22.33
2018-03-16T05:41:29.804Z,19.07
2018-03-16T05:43:59.354Z,21.57
2018-03-16T05:46:29.336Z,21.90
2018-03-16T05:48:57.687Z,23.67
2018-03-16T05:51:26.868Z,19.77
2018-03-16T05:53:55.456Z,23.00
2018-03-16T05:56:23.803Z,23.90
2018-03-16T05:58:52.166Z,22.27
2018-03-16T06:01:20.576Z,25.70
2018-03-16T06:03:49.082Z,26.57
2018-03-16T06:06:17.340Z,24.73
2018-03-16T06:08:45.767Z,26.63
2018-03-16T06:11:15.824Z,22.60
2018-03-16T06:13:46.791Z,21.77
2018-03-16T06:16:15.101Z,21.53
2018-03-16T06:18:47.643Z,20.20
2018-03-16T06:21:15.933Z,22.57
2018-03-16T06:23:44.371Z,23.13
2018-03-16T06:26:12.735Z,22.07
2018-03-16T06:28:42.776Z,19.70
2018-03-16T06:31:11.188Z,20.37
2018-03-16T06:33:39.665Z,23.77
2018-03-16T06:36:08.047Z,22.40
2018-03-16T06:38:37.025Z,22.40
2018-03-16T06:41:05.435Z,21.77
2018-03-16T06:43:33.893Z,20.40
2018-03-16T06:46:05.683Z,20.43
2018-03-16T06:48:34.127Z,18.67
2018-03-16T06:51:03.419Z,22.00
2018-03-16T06:53:31.707Z,16.90
2018-03-16T06:56:00.085Z,17.33
2018-03-16T06:58:28.536Z,18.60
2018-03-16T07:00:58.645Z,19.27
2018-03-16T07:03:27.333Z,18.40
2018-03-16T07:05:55.728Z,15.40
2018-03-16T07:08:24.323Z,16.40
2018-03-16T07:10:52.644Z,17.03
2018-03-16T07:13:22.884Z,16.83
2018-03-16T07:15:52.197Z,15.90
2018-03-16T07:18:20.924Z,14.67
2018-03-16T07:20:49.235Z,13.20
2018-03-16T07:23:17.700Z,13.33
2018-03-16T07:25:46.267Z,14.53
2018-03-16T07:28:14.843Z,15.27
2018-03-16T07:30:43.391Z,12.57
2018-03-16T07:33:11.732Z,13.30
2018-03-16T07:35:40.301Z,14.70
2018-03-16T07:38:10.884Z,12.10
2018-03-16T07:40:39.373Z,11.67
2018-03-16T07:43:07.686Z,10.93
2018-03-16T07:45:41.566Z,9.67
2018-03-16T07:48:09.928Z,12.73
2018-03-16T07:50:38.379Z,12.17
2018-03-16T07:53:06.717Z,9.93
2018-03-16T07:55:35.095Z,9.77
2018-03-16T07:58:03.575Z,9.80
2018-03-16T08:00:31.830Z,11.07
2018-03-16T08:03:00.197Z,9.23
2018-03-16T08:05:28.489Z,8.80
2018-03-16T08:07:56.891Z,8.17
2018-03-16T08:10:26.963Z,9.27
2018-03-16T08:12:55.399Z,8.57
2018-03-16T08:15:23.995Z,10.10
2018-03-16T08:17:52.439Z,9.83
2018-03-16T08:20:20.939Z,10.67
2018-03-16T08:22:50.076Z,8.50
2018-03-16T08:25:18.447Z,9.30
2018-03-16T08:27:48.888Z,9.50
2018-03-16T08:30:17.344Z,10.83
2018-03-16T08:32:45.817Z,7.20
2018-03-16T08:35:16.025Z,7.97
2018-03-16T08:37:48.333Z,7.30
2018-03-16T08:40:16.757Z,9.03
2018-03-16T08:42:45.171Z,7.03
2018-03-16T08:45:13.442Z,7.23
2018-03-16T08:47:41.865Z,7.30
2018-03-16T08:50:10.412Z,5.87
2018-03-16T08:52:38.703Z,5.67
2018-03-16T08:55:07.040Z,5.27
2018-03-16T08:57:35.415Z,4.63
2018-03-16T09:00:03.763Z,5.77
2018-03-16T09:02:32.330Z,6.23
2018-03-16T09:05:00.677Z,5.33
2018-03-16T09:07:29.741Z,4.80
2018-03-16T09:09:59.152Z,5.40
2018-03-16T09:12:27.506Z,6.97
2018-03-16T09:14:56.026Z,4.93
2018-03-16T09:17:25.977Z,5.60
2018-03-16T09:19:54.529Z,6.30
2018-03-16T09:22:22.904Z,5.37
2018-03-16T09:24:52.979Z,4.73
2018-03-16T09:27:22.988Z,6.47
2018-03-16T09:29:51.347Z,4.63
2018-03-16T09:32:19.772Z,4.20
2018-03-16T09:34:48.318Z,4.73
2018-03-16T09:37:16.696Z,3.53
2018-03-16T09:39:44.980Z,4.13
2018-03-16T09:42:13.445Z,5.30
2018-03-16T09:44:41.789Z,5.60
2018-03-16T09:47:11.870Z,4.10
2018-03-16T09:49:40.324Z,9.60
2018-03-16T09:52:10.268Z,3.23
2018-03-16T09:54:51.228Z,8.00
2018-03-16T09:57:19.659Z,3.70
2018-03-16T09:59:50.398Z,4.20
2018-03-16T10:02:19.038Z,3.30
2018-03-16T10:04:49.420Z,5.10
2018-03-16T10:07:17.936Z,4.77
2018-03-16T10:09:47.024Z,5.73
2018-03-16T10:12:15.360Z,5.03
2018-03-16T10:14:45.514Z,4.57
2018-03-16T10:17:13.936Z,3.80
2018-03-16T10:19:42.313Z,4.33
2018-03-16T10:22:10.617Z,3.90
2018-03-16T10:24:38.934Z,2.50
2018-03-16T10:27:07.518Z,2.10
2018-03-16T10:29:35.932Z,2.30
2018-03-16T10:32:04.540Z,2.10
2018-03-16T10:34:32.874Z,3.13
2018-03-16T10:37:01.741Z,3.83
2018-03-16T10:39:30.065Z,2.50
2018-03-16T10:41:59.458Z,1.90
2018-03-16T10:44:27.796Z,3.30
2018-03-16T10:46:56.078Z,3.00
2018-03-16T10:49:24.482Z,2.67
2018-03-16T10:51:52.921Z,3.13
2018-03-16T10:54:22.188Z,2.57
2018-03-16T10:56:50.815Z,3.77
2018-03-16T10:59:19.131Z,2.10
2018-03-16T11:01:52.990Z,2.60
2018-03-16T11:07:21.992Z,2.60
2018-03-16T11:09:50.500Z,4.07
2018-03-16T11:12:18.831Z,1.90
2018-03-16T11:14:47.152Z,3.00
2018-03-16T11:17:15.563Z,1.53
2018-03-16T11:19:43.863Z,1.80
2018-03-16T11:22:12.343Z,2.43
2018-03-16T11:24:40.627Z,2.17
2018-03-16T11:27:08.994Z,1.50
2018-03-16T11:29:38.860Z,4.07
2018-03-16T11:32:07.330Z,2.03
2018-03-16T11:34:36.859Z,1.77
2018-03-16T11:37:05.172Z,2.13
2018-03-16T11:39:33.564Z,1.47
2018-03-16T11:42:02.503Z,1.67
2018-03-16T11:44:30.856Z,2.90
2018-03-16T11:47:01.729Z,3.07
2018-03-16T11:49:30.142Z,2.50
2018-03-16T11:51:58.550Z,3.17
2018-03-16T11:54:27.039Z,1.80
2018-03-16T11:56:55.469Z,2.00
2018-03-16T11:59:25.558Z,1.57
2018-03-16T12:01:53.895Z,1.83
2018-03-16T12:04:24.928Z,1.50
2018-03-16T12:06:57.344Z,1.60
2018-03-16T12:09:27.531Z,2.10
2018-03-16T12:11:55.991Z,1.70
2018-03-16T12:14:24.389Z,1.77
2018-03-16T12:16:52.716Z,3.93
2018-03-16T12:19:21.075Z,3.10
2018-03-16T12:21:49.521Z,3.00
2018-03-16T12:24:17.969Z,1.67
2018-03-16T12:26:46.826Z,1.73
2018-03-16T12:29:15.167Z,2.20
2018-03-16T12:31:43.650Z,2.40
2018-03-16T12:34:11.963Z,1.97
2018-03-16T12:36:40.439Z,1.70
2018-03-16T12:39:10.155Z,2.60
2018-03-16T12:41:38.546Z,1.70
2018-03-16T12:44:06.968Z,1.90
2018-03-16T12:46:35.506Z,1.70
2018-03-16T12:49:03.812Z,3.77
2018-03-16T12:51:32.168Z,3.50
2018-03-16T12:54:00.610Z,2.90
2018-03-16T12:56:29.065Z,2.17
2018-03-16T12:58:57.396Z,2.10
2018-03-16T13:01:25.734Z,2.40
2018-03-16T13:03:54.791Z,2.00
2018-03-16T13:06:23.148Z,2.00
2018-03-16T13:08:51.652Z,1.70
2018-03-16T13:11:20.269Z,2.60
2018-03-16T13:13:48.657Z,2.50
2018-03-16T13:16:16.975Z,2.90
2018-03-16T13:18:45.310Z,2.97
2018-03-16T13:21:13.637Z,2.63
2018-03-16T13:23:41.987Z,9.67
2018-03-16T13:26:10.484Z,3.13
2018-03-16T13:28:38.806Z,3.47
2018-03-16T13:31:07.109Z,3.03
2018-03-16T13:33:35.587Z,4.47
2018-03-16T13:36:04.020Z,3.53
2018-03-16T13:38:32.407Z,4.93
2018-03-16T13:41:00.829Z,3.97
2018-03-16T13:43:29.131Z,3.40
2018-03-16T13:46:00.103Z,3.47
2018-03-16T13:48:28.494Z,3.17
2018-03-16T13:50:57.038Z,4.20
2018-03-16T13:53:25.382Z,2.57
2018-03-16T13:55:55.354Z,2.50
2018-03-16T13:58:23.929Z,4.13
2018-03-16T14:00:52.392Z,4.93
2018-03-16T14:03:20.733Z,3.07
2018-03-16T14:05:49.186Z,4.17
2018-03-16T14:08:18.330Z,2.83
2018-03-16T14:10:48.347Z,3.20
2018-03-16T14:13:17.089Z,2.57
2018-03-16T14:15:45.453Z,3.13
2018-03-16T14:18:13.751Z,4.53
2018-03-16T14:20:42.086Z,7.23
2018-03-16T14:23:10.668Z,14.87
2018-03-16T14:25:39.292Z,4.70
2018-03-16T14:28:09.401Z,10.00
2018-03-16T14:30:39.358Z,33.93
2018-03-16T14:33:07.697Z,19.87
2018-03-16T14:35:36.157Z,9.17
2018-03-16T14:38:06.221Z,6.00
2018-03-16T14:40:34.805Z,5.73
2018-03-16T14:43:04.079Z,4.00
2018-03-16T14:45:32.528Z,8.93
2018-03-16T14:48:02.732Z,18.90
2018-03-16T14:50:31.197Z,12.97
2018-03-16T14:53:00.494Z,10.07
2018-03-16T14:55:28.846Z,6.63
2018-03-16T14:57:57.377Z,22.30
2018-03-16T15:00:25.800Z,14.00
2018-03-16T15:02:54.121Z,10.80
2018-03-16T15:05:22.469Z,8.90
2018-03-16T15:07:50.907Z,7.50
2018-03-16T15:10:19.237Z,8.77
2018-03-16T15:12:47.654Z,6.30
2018-03-16T15:15:16.185Z,6.30
2018-03-16T15:17:44.555Z,3.20
2018-03-16T15:20:13.083Z,5.93
2018-03-16T15:22:41.508Z,6.67
2018-03-16T15:25:11.662Z,10.40
2018-03-16T15:27:40.125Z,8.30
2018-03-16T15:30:08.410Z,15.43
2018-03-16T15:32:36.761Z,6.67
2018-03-16T15:35:05.057Z,6.20
2018-03-16T15:37:35.557Z,5.23
2018-03-16T15:40:03.960Z,16.57
2018-03-16T15:42:32.528Z,5.70
2018-03-16T15:45:00.926Z,6.00
2018-03-16T15:47:29.243Z,13.70
2018-03-16T15:49:57.768Z,6.80
2018-03-16T15:52:26.390Z,7.30
2018-03-16T15:54:54.827Z,3.60
2018-03-16T15:57:23.229Z,3.83
2018-03-16T15:59:53.263Z,4.63
2018-03-16T16:02:21.652Z,4.23
2018-03-16T16:04:50.108Z,10.40
2018-03-16T16:07:18.465Z,4.80
2018-03-16T16:09:46.805Z,3.93
2018-03-16T16:12:15.394Z,4.77
2018-03-16T16:14:45.449Z,4.50
2018-03-16T16:17:13.845Z,4.40
2018-03-16T16:19:42.200Z,4.03
2018-03-16T16:22:10.621Z,5.40
2018-03-16T16:24:39.104Z,5.87
2018-03-16T16:27:07.481Z,4.97
2018-03-16T16:29:36.014Z,5.60
2018-03-16T16:32:04.498Z,4.13
2018-03-16T16:34:34.571Z,4.70
2018-03-16T16:37:03.613Z,3.97
2018-03-16T16:39:31.968Z,5.10
2018-03-16T16:42:01.512Z,4.87
2018-03-16T16:44:30.641Z,4.83
2018-03-16T16:46:58.972Z,5.37
2018-03-16T16:49:27.364Z,10.27
2018-03-16T16:51:55.724Z,2.80
2018-03-16T16:54:24.187Z,3.33
2018-03-16T16:56:52.734Z,4.07
2018-03-16T16:59:21.016Z,3.13
2018-03-16T17:01:49.488Z,3.67
2018-03-16T17:04:20.267Z,6.90
2018-03-16T17:06:53.930Z,12.83
2018-03-16T17:09:23.908Z,9.33
2018-03-16T17:11:52.731Z,10.73
2018-03-16T17:14:23.559Z,12.03
2018-03-16T17:16:55.147Z,7.60
2018-03-16T17:19:23.538Z,4.90
2018-03-16T17:21:52.737Z,3.40
2018-03-16T17:24:21.103Z,7.90
2018-03-16T17:26:49.674Z,5.90
2018-03-16T17:29:18.058Z,8.03
2018-03-16T17:31:46.555Z,8.30
2018-03-16T17:34:17.098Z,4.60
2018-03-16T17:36:45.789Z,10.23
2018-03-16T17:39:16.152Z,4.57
2018-03-16T17:41:46.972Z,4.33
2018-03-16T17:44:16.113Z,6.00
2018-03-16T17:46:44.617Z,5.33
2018-03-16T17:49:15.863Z,4.17
2018-03-16T17:51:47.736Z,7.00
2018-03-16T17:54:16.071Z,6.00
2018-03-16T17:56:44.449Z,5.73
2018-03-16T17:59:12.980Z,5.10
2018-03-16T18:01:41.447Z,4.07
2018-03-16T18:04:10.840Z,6.80
2018-03-16T18:06:41.311Z,4.27
2018-03-16T18:09:09.747Z,5.30
2018-03-16T18:11:41.062Z,6.97
2018-03-16T18:14:09.757Z,9.57
2018-03-16T18:16:38.500Z,6.83
2018-03-16T18:19:06.851Z,6.33
2018-03-16T18:21:35.180Z,7.33
2018-03-16T18:24:05.291Z,3.07
2018-03-16T18:26:33.831Z,3.40
2018-03-16T18:29:02.224Z,4.10
2018-03-16T18:31:32.180Z,12.03
2018-03-16T18:34:00.576Z,2.83
2018-03-16T18:36:29.077Z,6.57
2018-03-16T18:38:58.162Z,8.00
2018-03-16T18:41:28.656Z,3.80
2018-03-16T18:43:57.021Z,4.47
2018-03-16T18:46:25.687Z,5.32
2018-03-16T18:48:54.173Z,4.77
2018-03-16T18:51:24.182Z,5.10
2018-03-16T18:53:52.695Z,3.28
2018-03-16T18:56:21.187Z,4.50
2018-03-16T18:58:49.695Z,5.00
2018-03-16T19:01:18.033Z,6.00
2018-03-16T19:03:46.550Z,3.93
2018-03-16T19:06:14.850Z,4.45
2018-03-16T19:08:43.274Z,5.33
2018-03-16T19:11:11.572Z,3.30
2018-03-16T19:13:41.545Z,5.77
2018-03-16T19:16:10.116Z,3.37
2018-03-16T19:18:40.026Z,7.50
2018-03-16T19:21:10.234Z,4.70
2018-03-16T19:23:38.576Z,6.83
2018-03-16T19:26:07.127Z,5.87
2018-03-16T19:28:35.603Z,5.63
2018-03-16T19:31:04.166Z,4.80
2018-03-16T19:33:32.538Z,6.13
2018-03-16T19:36:00.896Z,6.00
2018-03-16T19:38:29.242Z,5.10
2018-03-16T19:40:57.779Z,6.17
2018-03-16T19:43:26.081Z,6.50
2018-03-16T19:45:54.515Z,7.10
2018-03-16T19:48:24.621Z,6.40
2018-03-16T19:50:53.188Z,5.43
2018-03-16T19:53:21.555Z,6.33
2018-03-16T19:55:50.957Z,7.73
2018-03-16T19:58:21.272Z,7.93
2018-03-16T20:00:51.306Z,8.00
2018-03-16T20:03:19.670Z,8.57
2018-03-16T20:05:49.269Z,9.77
2018-03-16T20:08:19.693Z,6.70
2018-03-16T20:10:48.990Z,10.10
2018-03-16T20:13:17.745Z,12.80
2018-03-16T20:15:46.374Z,8.60
2018-03-16T20:18:14.694Z,10.80
2018-03-16T20:20:44.870Z,8.93
2018-03-16T20:23:15.057Z,8.10
2018-03-16T20:25:45.199Z,8.30
2018-03-16T20:28:13.660Z,7.60
2018-03-16T20:30:41.982Z,12.53
2018-03-16T20:33:10.439Z,8.73
2018-03-16T20:35:38.792Z,10.87
2018-03-16T20:38:07.306Z,10.60
2018-03-16T20:40:38.460Z,13.83
2018-03-16T20:43:06.884Z,13.27
2018-03-16T20:45:35.496Z,16.80
2018-03-16T20:48:04.279Z,14.73
2018-03-16T20:50:32.705Z,17.97
2018-03-16T20:53:02.613Z,19.73
2018-03-16T20:55:31.533Z,15.43
2018-03-16T20:57:59.915Z,15.93
2018-03-16T21:00:28.313Z,17.80
2018-03-16T21:02:56.705Z,19.50
2018-03-16T21:05:26.025Z,17.77
2018-03-16T21:07:54.390Z,16.97
2018-03-16T21:10:22.962Z,15.10
2018-03-16T21:12:51.503Z,19.00
2018-03-16T21:15:19.967Z,19.10
2018-03-16T21:17:48.303Z,14.63
2018-03-16T21:20:16.595Z,15.37
2018-03-16T21:22:47.577Z,13.50
2018-03-16T21:25:16.092Z,13.97
2018-03-16T21:27:44.460Z,7.70
2018-03-16T21:30:12.746Z,6.13
2018-03-16T21:32:41.169Z,5.87
2018-03-16T21:35:11.397Z,6.73
2018-03-16T21:37:39.744Z,9.80
2018-03-16T21:40:10.026Z,8.43
2018-03-16T21:42:40.839Z,7.70
2018-03-16T21:45:09.310Z,7.47
2018-03-16T21:47:37.845Z,6.70
2018-03-16T21:50:06.286Z,6.57
2018-03-16T21:52:34.674Z,5.73
2018-03-16T21:55:02.996Z,7.47
2018-03-16T21:57:31.550Z,6.53
2018-03-16T21:59:59.946Z,6.50
2018-03-16T22:02:28.263Z,5.47
2018-03-16T22:04:59.450Z,14.13
2018-03-16T22:07:28.047Z,14.10
2018-03-16T22:09:56.382Z,11.30
2018-03-16T22:12:25.653Z,11.67
2018-03-16T22:14:53.993Z,10.40
2018-03-16T22:17:24.905Z,11.27
2018-03-16T22:19:53.725Z,11.27
2018-03-16T22:22:24.704Z,11.23
2018-03-16T22:24:53.380Z,34.40
2018-03-16T22:27:23.554Z,30.70
2018-03-16T22:29:52.046Z,21.10
2018-03-16T22:32:20.427Z,21.67
2018-03-16T22:34:48.970Z,21.53
2018-03-16T22:37:18.072Z,21.37
2018-03-16T22:39:46.387Z,20.13
2018-03-16T22:42:14.706Z,17.73
2018-03-16T22:44:43.078Z,21.40
2018-03-16T22:47:13.300Z,19.13
2018-03-16T22:49:43.948Z,17.43
2018-03-16T22:52:12.383Z,18.47
2018-03-16T22:54:41.856Z,17.10
2018-03-16T22:57:10.887Z,19.07
2018-03-16T22:59:39.290Z,18.17
2018-03-16T23:02:07.781Z,18.00
2018-03-16T23:04:36.258Z,15.50
2018-03-16T23:07:04.555Z,16.20
2018-03-16T23:09:32.914Z,20.60
2018-03-16T23:12:01.303Z,20.70
2018-03-16T23:14:29.583Z,21.70
2018-03-16T23:16:58.136Z,20.60
2018-03-16T23:19:27.219Z,18.70
2018-03-16T23:21:55.704Z,14.40
2018-03-16T23:24:24.145Z,14.57
2018-03-16T23:26:52.564Z,17.53
2018-03-16T23:29:23.242Z,12.57
2018-03-16T23:31:51.578Z,15.40
2018-03-16T23:34:19.962Z,10.20
2018-03-16T23:36:50.909Z,12.27
2018-03-16T23:39:19.222Z,12.83
2018-03-16T23:41:48.492Z,12.03
2018-03-16T23:44:16.843Z,9.77
2018-03-16T23:46:45.340Z,7.60
2018-03-16T23:49:13.815Z,7.37
2018-03-16T23:51:42.328Z,7.30
2018-03-16T23:54:10.768Z,6.50
2018-03-16T23:56:39.094Z,5.80
2018-03-16T23:59:07.456Z,6.73
